Terminal Aerodrome Forecast
Issued by NWS

Home | Current Version | Previous Version | Text Only | Print | Product List | Glossary On
Versions: 1 2 3 4 5 6 7 8 9 10 11 12 13 14
188
FTUS42 KTBW 241120
TAFRSW
TAF
KRSW 241120Z 2412/2512 13003KT P6SM FEW250
     FM241400 15005KT P6SM FEW025 SCT250
     FM241800 22007KT P6SM VCTS SCT030CB SCT100 BKN250
     FM250100 VRB03KT P6SM SCT020 BKN040
     FM250400 00000KT P6SM FEW040 SCT250=

USA.gov is the U.S. government's official web portal to all federal, state and local government web resources and services.